createdAt,value
2023-04-15T00:00:48.940Z,77883.84
2023-04-15T00:02:22.443Z,77889.78
2023-04-15T00:03:56.158Z,77893.72
2023-04-15T00:05:32.912Z,77905.59
2023-04-15T00:07:06.050Z,77903.63
2023-04-15T00:08:39.746Z,77891.75
2023-04-15T00:10:12.784Z,77903.63
2023-04-15T00:11:46.704Z,77909.56
2023-04-15T00:13:20.674Z,77915.50
2023-04-15T00:14:54.966Z,77921.44
2023-04-15T00:16:28.644Z,77927.34
2023-04-15T00:18:02.670Z,77923.41
2023-04-15T00:19:35.853Z,77929.34
2023-04-15T00:21:09.610Z,77925.38
2023-04-15T00:22:42.970Z,77931.31
2023-04-15T00:24:16.222Z,77935.28
2023-04-15T00:25:49.334Z,77939.22
2023-04-15T00:27:22.553Z,77953.06
2023-04-15T00:28:55.725Z,77945.16
2023-04-15T00:30:29.400Z,77941.22
2023-04-15T00:32:03.071Z,77945.16
2023-04-15T00:33:37.346Z,77943.19
2023-04-15T00:35:11.362Z,77945.16
2023-04-15T00:36:45.003Z,77953.06
2023-04-15T00:38:18.268Z,77957.03
2023-04-15T00:39:52.226Z,77960.97
2023-04-15T00:41:25.913Z,77959.00
2023-04-15T00:42:59.290Z,77968.91
2023-04-15T00:44:33.463Z,77964.94
2023-04-15T00:46:07.974Z,77976.81
2023-04-15T00:47:43.590Z,77970.88
2023-04-15T00:49:17.993Z,77974.84
2023-04-15T00:50:51.048Z,78000.53
2023-04-15T00:52:24.239Z,78008.47
2023-04-15T00:53:57.764Z,78020.31
2023-04-15T00:55:31.252Z,78036.16
2023-04-15T00:57:07.228Z,78028.25
2023-04-15T00:58:41.173Z,78040.09
2023-04-15T01:00:14.821Z,78046.03
2023-04-15T01:01:48.831Z,78048.03
2023-04-15T01:03:22.426Z,78055.94
2023-04-15T01:04:57.422Z,78069.78
2023-04-15T01:06:32.721Z,78061.88
2023-04-15T01:08:06.827Z,78071.75
2023-04-15T01:09:39.908Z,78077.69
2023-04-15T01:11:14.159Z,78077.69
2023-04-15T01:12:47.943Z,78087.59
2023-04-15T01:14:22.263Z,78095.50
2023-04-15T01:15:58.195Z,78099.44
2023-04-15T01:17:32.047Z,78107.38
2023-04-15T01:19:05.380Z,78117.25
2023-04-15T01:20:39.351Z,78111.31
2023-04-15T01:22:12.886Z,78119.22
2023-04-15T01:23:48.958Z,78131.09
2023-04-15T01:25:48.489Z,78121.22
2023-04-15T01:27:22.553Z,78158.78
2023-04-15T01:28:56.914Z,78127.16
2023-04-15T01:30:34.147Z,78131.09
2023-04-15T01:32:07.344Z,78127.16
2023-04-15T01:34:00.038Z,78125.16
2023-04-15T01:35:52.005Z,78135.06
2023-04-15T01:37:25.589Z,78135.06
2023-04-15T01:38:59.075Z,78186.50
2023-04-15T01:40:32.439Z,78208.25
2023-04-15T01:42:07.405Z,78139.03
2023-04-15T01:43:42.207Z,78160.78
2023-04-15T01:45:17.871Z,78127.16
2023-04-15T01:46:52.390Z,78139.03
2023-04-15T01:48:27.741Z,78133.09
2023-04-15T01:50:02.382Z,78139.03
2023-04-15T01:51:37.001Z,78131.09
2023-04-15T01:53:11.533Z,78119.22
2023-04-15T01:54:46.260Z,78123.19
2023-04-15T01:56:20.974Z,78119.22
2023-04-15T01:57:55.628Z,78044.06
2023-04-15T01:59:32.458Z,77873.94
2023-04-15T02:01:07.340Z,77790.88
2023-04-15T02:02:42.200Z,77751.31
2023-04-15T02:04:19.562Z,77684.06
2023-04-15T02:05:54.138Z,77656.38
2023-04-15T02:07:29.279Z,77648.47
2023-04-15T02:09:04.670Z,77701.88
2023-04-15T02:10:39.884Z,77717.69
2023-04-15T02:12:14.336Z,77640.56
2023-04-15T02:13:48.596Z,77541.66
2023-04-15T02:15:22.986Z,77508.03
2023-04-15T02:16:58.087Z,77498.16
2023-04-15T02:18:32.549Z,77486.28
2023-04-15T02:20:08.873Z,77393.31
2023-04-15T02:21:43.379Z,77355.75
2023-04-15T02:23:17.619Z,77292.44
2023-04-15T02:24:52.023Z,77225.22
2023-04-15T02:26:26.108Z,77308.28
2023-04-15T02:28:02.770Z,77332.00
2023-04-15T02:29:36.863Z,77132.25
2023-04-15T02:31:11.277Z,77248.94
2023-04-15T02:32:45.685Z,77316.19
2023-04-15T02:34:20.126Z,77452.66
2023-04-15T02:35:54.401Z,77367.59
2023-04-15T02:37:29.036Z,77276.63
2023-04-15T02:39:04.501Z,77134.25
2023-04-15T02:40:38.794Z,77157.97
2023-04-15T02:42:14.371Z,77181.69
2023-04-15T02:43:49.605Z,77189.59
2023-04-15T02:45:26.665Z,77241.03
2023-04-15T02:47:01.100Z,77256.84
2023-04-15T02:48:35.557Z,77189.59
2023-04-15T02:50:13.649Z,77161.94
2023-04-15T02:51:50.186Z,77138.19
2023-04-15T02:53:26.279Z,77173.78
2023-04-15T02:55:01.063Z,77233.13
2023-04-15T02:56:37.179Z,77300.38
2023-04-15T02:58:11.299Z,77122.38
2023-04-15T02:59:45.716Z,77051.19
2023-04-15T03:01:21.427Z,77057.09
2023-04-15T03:03:03.891Z,77078.88
2023-04-15T03:04:38.500Z,77098.63
2023-04-15T03:06:12.892Z,77039.31
2023-04-15T03:07:47.057Z,77019.53
2023-04-15T03:09:21.634Z,77013.59
2023-04-15T03:10:55.704Z,77043.25
2023-04-15T03:12:30.632Z,76960.22
2023-04-15T03:14:05.662Z,77005.69
2023-04-15T03:15:42.708Z,76837.59
2023-04-15T03:17:17.505Z,76841.56
2023-04-15T03:18:52.749Z,76956.25
2023-04-15T03:20:28.785Z,77086.78
2023-04-15T03:22:03.026Z,77055.13
2023-04-15T03:23:37.101Z,77035.34
2023-04-15T03:25:11.921Z,77130.28
2023-04-15T03:26:46.332Z,77146.09
2023-04-15T03:28:23.643Z,76991.84
2023-04-15T03:29:58.400Z,77015.56
2023-04-15T03:31:34.367Z,76972.06
2023-04-15T03:33:08.948Z,76987.88
2023-04-15T03:34:44.324Z,77019.53
2023-04-15T03:36:18.896Z,77043.25
2023-04-15T03:37:53.128Z,77021.50
2023-04-15T03:39:27.632Z,76942.41
2023-04-15T03:41:02.046Z,76944.38
2023-04-15T03:42:36.326Z,77150.06
2023-04-15T03:44:10.683Z,77067.00
2023-04-15T03:45:44.799Z,77023.50
2023-04-15T03:47:19.060Z,76892.97
2023-04-15T03:48:53.214Z,76889.00
2023-04-15T03:50:28.020Z,77051.19
2023-04-15T03:52:02.174Z,77027.44
2023-04-15T03:53:36.793Z,76956.25
2023-04-15T03:55:11.202Z,76928.56
2023-04-15T03:56:46.072Z,76991.84
2023-04-15T03:58:20.393Z,76934.50
2023-04-15T03:59:54.600Z,77051.19
2023-04-15T04:01:28.888Z,76892.97
2023-04-15T04:03:03.215Z,77039.31
2023-04-15T04:04:37.732Z,76960.22
2023-04-15T04:06:12.991Z,76849.47
2023-04-15T04:07:47.667Z,76912.75
2023-04-15T04:09:22.025Z,77027.44
2023-04-15T04:10:56.581Z,77035.34
2023-04-15T04:12:30.987Z,76924.59
2023-04-15T04:14:05.107Z,76956.25
2023-04-15T04:15:39.577Z,76962.19
2023-04-15T04:17:13.760Z,77015.56
2023-04-15T04:18:48.078Z,76944.38
2023-04-15T04:20:22.940Z,76948.34
2023-04-15T04:21:57.569Z,76924.59
2023-04-15T04:23:31.934Z,76906.81
2023-04-15T04:25:07.513Z,76892.97
2023-04-15T04:26:41.694Z,76863.31
2023-04-15T04:28:16.137Z,76788.16
2023-04-15T04:29:50.392Z,76766.41
2023-04-15T04:31:24.664Z,76924.59
2023-04-15T04:32:59.060Z,76891.00
2023-04-15T04:34:33.391Z,76837.59
2023-04-15T04:36:07.878Z,76841.56
2023-04-15T04:37:42.355Z,76960.22
2023-04-15T04:39:16.453Z,76896.94
2023-04-15T04:40:50.695Z,76978.00
2023-04-15T04:42:24.882Z,76837.59
2023-04-15T04:43:59.037Z,76752.56
2023-04-15T04:45:33.166Z,76817.81
2023-04-15T04:47:08.000Z,76936.47
2023-04-15T04:48:42.124Z,76987.88
2023-04-15T04:50:17.125Z,77003.72
2023-04-15T04:51:51.889Z,76811.88
2023-04-15T04:53:26.771Z,76798.03
2023-04-15T04:55:01.566Z,76815.84
2023-04-15T04:56:36.052Z,76829.69
2023-04-15T04:58:10.192Z,76805.97
2023-04-15T04:59:44.333Z,76813.88
2023-04-15T05:01:18.524Z,76839.56
2023-04-15T05:02:53.069Z,76900.88
2023-04-15T05:04:27.309Z,76900.88
2023-04-15T05:06:03.470Z,76871.22
2023-04-15T05:07:38.455Z,76873.19
2023-04-15T05:09:12.817Z,76802.00
2023-04-15T05:10:47.149Z,76809.91
2023-04-15T05:12:21.439Z,76746.63
2023-04-15T05:13:55.820Z,76711.03
2023-04-15T05:15:30.023Z,76746.63
2023-04-15T05:17:04.153Z,76823.75
2023-04-15T05:18:38.378Z,76805.97
2023-04-15T05:20:13.019Z,76778.28
2023-04-15T05:21:47.441Z,76833.66
2023-04-15T05:23:21.597Z,76906.81
2023-04-15T05:24:56.328Z,76720.94
2023-04-15T05:26:30.506Z,76738.72
2023-04-15T05:28:04.737Z,76679.41
2023-04-15T05:29:38.885Z,76720.94
2023-04-15T05:31:13.153Z,76728.84
2023-04-15T05:32:47.292Z,76867.25
2023-04-15T05:34:21.464Z,76718.94
2023-04-15T05:35:55.931Z,76604.25
2023-04-15T05:37:30.122Z,76689.28
2023-04-15T05:39:04.690Z,76620.06
2023-04-15T05:40:38.964Z,76647.75
2023-04-15T05:42:13.160Z,76665.56
2023-04-15T05:43:47.476Z,76720.94
2023-04-15T05:45:21.700Z,76766.41
2023-04-15T05:46:56.060Z,76730.81
2023-04-15T05:48:30.229Z,76649.75
2023-04-15T05:50:05.148Z,76754.53
2023-04-15T05:51:39.340Z,76720.94
2023-04-15T05:53:13.828Z,76616.13
2023-04-15T05:54:48.024Z,76687.31
2023-04-15T05:56:22.514Z,76592.41
2023-04-15T05:57:57.032Z,76736.75
2023-04-15T05:59:32.143Z,76639.84
2023-04-15T06:01:06.763Z,76566.69
2023-04-15T06:02:41.382Z,76507.38
2023-04-15T06:04:15.761Z,76596.34
2023-04-15T06:05:50.290Z,76724.88
2023-04-15T06:07:24.688Z,76732.78
2023-04-15T06:08:58.978Z,76865.28
2023-04-15T06:10:36.818Z,76823.75
2023-04-15T06:12:12.586Z,76754.53
2023-04-15T06:13:46.864Z,76760.47
2023-04-15T06:15:21.184Z,76786.19
2023-04-15T06:16:55.621Z,76916.69
2023-04-15T06:18:29.964Z,76891.00
2023-04-15T06:20:04.725Z,76855.41
2023-04-15T06:21:39.176Z,76728.84
2023-04-15T06:23:13.638Z,76724.88
2023-04-15T06:24:48.593Z,76756.53
2023-04-15T06:26:22.949Z,76718.94
2023-04-15T06:27:57.371Z,76716.97
2023-04-15T06:29:31.773Z,76780.25
2023-04-15T06:31:06.437Z,76875.16
2023-04-15T06:32:40.944Z,76898.91
2023-04-15T06:34:15.429Z,76989.88
2023-04-15T06:35:50.072Z,77029.41
2023-04-15T06:37:24.755Z,77122.38
2023-04-15T06:38:59.219Z,77102.59
2023-04-15T06:40:34.039Z,77142.16
2023-04-15T06:42:08.573Z,77114.47
2023-04-15T06:43:42.923Z,77082.81
2023-04-15T06:45:18.038Z,77082.81
2023-04-15T06:46:52.424Z,77169.84
2023-04-15T06:48:26.609Z,77199.50
2023-04-15T06:50:00.796Z,77169.84
2023-04-15T06:51:36.646Z,77237.06
2023-04-15T06:53:10.780Z,77215.31
2023-04-15T06:54:44.826Z,77169.84
2023-04-15T06:56:19.153Z,77203.47
2023-04-15T06:57:53.272Z,77193.56
2023-04-15T06:59:27.742Z,77161.94
2023-04-15T07:01:01.924Z,77154.00
2023-04-15T07:02:36.883Z,77201.47
2023-04-15T07:04:12.605Z,77181.69
2023-04-15T07:05:46.967Z,77152.03
2023-04-15T07:07:21.561Z,77193.56
2023-04-15T07:08:56.239Z,77241.03
2023-04-15T07:10:33.717Z,77197.53
2023-04-15T07:12:07.961Z,77161.94
2023-04-15T07:13:42.227Z,77217.31
2023-04-15T07:15:17.047Z,77161.94
2023-04-15T07:16:51.662Z,77150.06
2023-04-15T07:18:26.412Z,77138.19
2023-04-15T07:20:00.543Z,77152.03
2023-04-15T07:21:35.039Z,77209.38
2023-04-15T07:23:09.333Z,77205.44
2023-04-15T07:24:43.614Z,77157.97
2023-04-15T07:26:18.428Z,77157.97
2023-04-15T07:27:53.727Z,77193.56
2023-04-15T07:29:27.709Z,77185.66
2023-04-15T07:31:02.402Z,77245.00
2023-04-15T07:32:36.890Z,77173.78
2023-04-15T07:34:11.198Z,77154.00
2023-04-15T07:35:45.635Z,77122.38
2023-04-15T07:37:20.230Z,77074.91
2023-04-15T07:38:58.227Z,77100.63
2023-04-15T07:40:32.877Z,77102.59
2023-04-15T07:42:07.255Z,77063.03
2023-04-15T07:43:41.549Z,77053.16
2023-04-15T07:45:16.707Z,77084.78
2023-04-15T07:46:51.060Z,77033.38
2023-04-15T07:48:25.182Z,77047.22
2023-04-15T07:50:00.693Z,77072.94
2023-04-15T07:51:35.010Z,77031.41
2023-04-15T07:53:09.962Z,77047.22
2023-04-15T07:54:44.105Z,77098.63
2023-04-15T07:56:18.417Z,77025.47
2023-04-15T07:57:52.495Z,77017.56
2023-04-15T07:59:28.151Z,77070.94
2023-04-15T08:01:02.342Z,77047.22
2023-04-15T08:02:39.659Z,77035.34
2023-04-15T08:04:15.056Z,77023.50
2023-04-15T08:05:49.659Z,76966.13
2023-04-15T08:07:24.566Z,76940.44
2023-04-15T08:08:59.056Z,76964.16
2023-04-15T08:10:33.400Z,76997.78
2023-04-15T08:12:09.933Z,77017.56
2023-04-15T08:13:44.170Z,77023.50
2023-04-15T08:15:18.742Z,76983.94
2023-04-15T08:16:53.246Z,77001.72
2023-04-15T08:18:27.835Z,76970.09
2023-04-15T08:20:02.086Z,76983.94
2023-04-15T08:21:37.106Z,77037.34
2023-04-15T08:23:11.490Z,77068.97
2023-04-15T08:24:46.284Z,77047.22
2023-04-15T08:26:22.404Z,77035.34
2023-04-15T08:27:59.812Z,77067.00
2023-04-15T08:29:34.640Z,77055.13
2023-04-15T08:31:12.384Z,76960.22
2023-04-15T08:32:50.419Z,76952.28
2023-04-15T08:34:25.627Z,76960.22
2023-04-15T08:35:59.897Z,76916.69
2023-04-15T08:37:34.103Z,76946.38
2023-04-15T08:39:08.882Z,77009.66
2023-04-15T08:40:45.394Z,76983.94
2023-04-15T08:42:33.018Z,76960.22
2023-04-15T08:44:07.634Z,76983.94
2023-04-15T08:45:42.843Z,76983.94
2023-04-15T08:47:21.984Z,76964.16
2023-04-15T08:48:59.228Z,76912.75
2023-04-15T08:50:33.726Z,76956.25
2023-04-15T08:52:09.624Z,76972.06
2023-04-15T08:53:45.160Z,76983.94
2023-04-15T08:55:20.941Z,76983.94
2023-04-15T08:56:55.717Z,76944.38
2023-04-15T08:58:30.533Z,76987.88
2023-04-15T09:00:06.104Z,76938.44
2023-04-15T09:01:41.233Z,76853.41
2023-04-15T09:03:15.609Z,76877.16
2023-04-15T09:04:50.292Z,76904.84
2023-04-15T09:06:24.977Z,76912.75
2023-04-15T09:07:59.258Z,76918.69
2023-04-15T09:09:34.769Z,76906.81
2023-04-15T09:11:09.060Z,76885.06
2023-04-15T09:12:43.724Z,76865.28
2023-04-15T09:14:18.566Z,76861.34
2023-04-15T09:15:54.117Z,76815.84
2023-04-15T09:17:28.525Z,76792.13
2023-04-15T09:19:21.816Z,76726.84
2023-04-15T09:20:56.066Z,76770.38
2023-04-15T09:22:33.427Z,76807.94
2023-04-15T09:24:08.052Z,76819.81
2023-04-15T09:25:42.911Z,76758.50
2023-04-15T09:27:17.551Z,76760.47
2023-04-15T09:28:52.187Z,76811.88
2023-04-15T09:30:27.841Z,76821.78
2023-04-15T09:32:13.091Z,76857.38
2023-04-15T09:33:57.629Z,76873.19
2023-04-15T09:35:31.828Z,76827.72
2023-04-15T09:37:07.539Z,76811.88
2023-04-15T09:38:57.555Z,76764.44
2023-04-15T09:40:40.088Z,76796.06
2023-04-15T09:42:14.506Z,76762.44
2023-04-15T09:43:49.199Z,76762.44
2023-04-15T09:45:25.688Z,76774.31
2023-04-15T09:47:02.272Z,76805.97
2023-04-15T09:48:38.043Z,76835.63
2023-04-15T09:50:12.271Z,76849.47
2023-04-15T09:51:57.585Z,76819.81
2023-04-15T09:53:39.305Z,76738.72
2023-04-15T09:55:14.834Z,76742.69
2023-04-15T09:56:49.163Z,76748.59
2023-04-15T09:58:28.262Z,76762.44
2023-04-15T10:00:07.198Z,76748.59
2023-04-15T10:01:43.178Z,76734.78
2023-04-15T10:03:44.410Z,76715.00
2023-04-15T10:05:19.056Z,76728.84
2023-04-15T10:06:53.258Z,76718.94
2023-04-15T10:08:33.305Z,76756.53
2023-04-15T10:10:08.502Z,76813.88
2023-04-15T10:11:43.827Z,76766.41
2023-04-15T10:13:21.039Z,76750.59
2023-04-15T10:15:06.381Z,76724.88
2023-04-15T10:16:44.284Z,76766.41
2023-04-15T10:18:22.302Z,76778.28
2023-04-15T10:19:57.150Z,76750.59
2023-04-15T10:21:32.476Z,76790.13
2023-04-15T10:23:09.474Z,76805.97
2023-04-15T10:24:45.758Z,76762.44
2023-04-15T10:26:20.557Z,76760.47
2023-04-15T10:27:54.954Z,76760.47
2023-04-15T10:29:30.013Z,76740.69
2023-04-15T10:31:09.218Z,76703.13
2023-04-15T10:32:44.415Z,76734.78
2023-04-15T10:34:19.493Z,76689.28
2023-04-15T10:35:55.918Z,76734.78
2023-04-15T10:37:38.185Z,76703.13
2023-04-15T10:39:37.680Z,76693.25
2023-04-15T10:41:31.474Z,76639.84
2023-04-15T10:43:05.905Z,76631.94
2023-04-15T10:44:43.693Z,76728.84
2023-04-15T10:46:23.086Z,76720.94
2023-04-15T10:48:00.438Z,76707.09
2023-04-15T10:49:36.126Z,76736.75
2023-04-15T10:51:10.797Z,76693.25
2023-04-15T10:52:45.336Z,76675.44
2023-04-15T10:54:25.110Z,76643.81
2023-04-15T10:56:00.236Z,76697.19
2023-04-15T10:57:41.729Z,76602.28
2023-04-15T10:59:16.714Z,76659.63
2023-04-15T11:00:54.879Z,76770.38
2023-04-15T11:02:47.649Z,76736.75
2023-04-15T11:05:00.339Z,76715.00
2023-04-15T11:07:05.938Z,76610.19
2023-04-15T11:09:03.782Z,76612.16
2023-04-15T11:10:38.003Z,76624.03
2023-04-15T11:12:12.351Z,76633.91
2023-04-15T11:13:51.259Z,76624.03
2023-04-15T11:15:43.601Z,76657.66
2023-04-15T11:17:31.511Z,76626.00
2023-04-15T11:19:05.688Z,76697.19
2023-04-15T11:20:43.139Z,76665.56
2023-04-15T11:22:17.519Z,76639.84
2023-04-15T11:23:51.641Z,76645.78
2023-04-15T11:25:28.106Z,76679.41
2023-04-15T11:27:02.942Z,76639.84
2023-04-15T11:28:39.156Z,76657.66
2023-04-15T11:30:22.248Z,76600.31
2023-04-15T11:32:07.043Z,76602.28
2023-04-15T11:34:01.945Z,76596.34
2023-04-15T11:35:37.094Z,76616.13
2023-04-15T11:37:12.070Z,76689.28
2023-04-15T11:38:48.358Z,76679.41
2023-04-15T11:40:29.974Z,76711.03
2023-04-15T11:42:04.233Z,76711.03
2023-04-15T11:43:38.731Z,76679.41
2023-04-15T11:45:15.102Z,76715.00
2023-04-15T11:46:49.340Z,76718.94
2023-04-15T11:48:27.572Z,76697.19
2023-04-15T11:50:22.725Z,76665.56
2023-04-15T11:51:55.956Z,76691.25
2023-04-15T11:53:49.589Z,76705.09
2023-04-15T11:55:26.648Z,76738.72
2023-04-15T11:57:00.683Z,76722.91
2023-04-15T11:58:37.947Z,76742.69
2023-04-15T12:00:11.491Z,76750.59
2023-04-15T12:01:46.841Z,76736.75
2023-04-15T12:03:29.398Z,76681.38
2023-04-15T12:05:07.295Z,76647.75
2023-04-15T12:06:41.610Z,76653.69
2023-04-15T12:08:14.800Z,76669.50
2023-04-15T12:09:57.143Z,76718.94
2023-04-15T12:11:32.869Z,76740.69
2023-04-15T12:13:07.876Z,76693.25
2023-04-15T12:14:42.706Z,76671.50
2023-04-15T12:16:20.369Z,76671.50
2023-04-15T12:17:55.375Z,76703.13
2023-04-15T12:19:35.645Z,76673.47
2023-04-15T12:21:12.547Z,76695.22
2023-04-15T12:22:45.644Z,76667.53
2023-04-15T12:24:22.868Z,76691.25
2023-04-15T12:25:55.794Z,76663.59
2023-04-15T12:27:29.868Z,76675.44
2023-04-15T12:29:07.933Z,76713.03
2023-04-15T12:30:54.642Z,76730.81
2023-04-15T12:32:27.759Z,76744.66
2023-04-15T12:34:01.430Z,76744.66
2023-04-15T12:35:34.551Z,76715.00
2023-04-15T12:37:10.137Z,76715.00
2023-04-15T12:38:43.092Z,76687.31
2023-04-15T12:40:15.838Z,76671.50
2023-04-15T12:41:48.766Z,76716.97
2023-04-15T12:43:22.155Z,76718.94
2023-04-15T12:44:55.049Z,76709.06
2023-04-15T12:46:28.759Z,76701.16
2023-04-15T12:48:02.044Z,76683.34
2023-04-15T12:49:35.576Z,76730.81
2023-04-15T12:51:08.785Z,76718.94
2023-04-15T12:52:42.073Z,76711.03
2023-04-15T12:54:15.296Z,76715.00
2023-04-15T12:55:48.727Z,76730.81
2023-04-15T12:57:21.660Z,76760.47
2023-04-15T12:58:54.940Z,76768.38
2023-04-15T13:00:28.219Z,76726.84
2023-04-15T13:02:03.103Z,76742.69
2023-04-15T13:03:36.629Z,76742.69
2023-04-15T13:05:28.379Z,76762.44
2023-04-15T13:07:04.343Z,76738.72
2023-04-15T13:08:42.574Z,76734.78
2023-04-15T13:10:18.612Z,76772.34
2023-04-15T13:11:53.072Z,76782.22
2023-04-15T13:13:26.588Z,76782.22
2023-04-15T13:14:59.519Z,76778.28
2023-04-15T13:16:33.228Z,76849.47
2023-04-15T13:18:08.080Z,76792.13
2023-04-15T13:19:41.179Z,76794.09
2023-04-15T13:21:14.365Z,76776.28
2023-04-15T13:22:47.479Z,76807.94
2023-04-15T13:24:20.590Z,76819.81
2023-04-15T13:25:53.638Z,76802.00
2023-04-15T13:27:26.890Z,76790.13
2023-04-15T13:29:00.378Z,76790.13
2023-04-15T13:30:33.744Z,76786.19
2023-04-15T13:32:07.234Z,76768.38
2023-04-15T13:33:40.616Z,76825.72
2023-04-15T13:35:13.755Z,76821.78
2023-04-15T13:36:47.434Z,76803.97
2023-04-15T13:38:20.758Z,76802.00
2023-04-15T13:39:53.649Z,76794.09
2023-04-15T13:41:26.563Z,76805.97
2023-04-15T13:43:00.351Z,76843.53
2023-04-15T13:44:33.901Z,76835.63
2023-04-15T13:46:06.831Z,76829.69
2023-04-15T13:47:41.131Z,76837.59
2023-04-15T13:49:14.114Z,76843.53
2023-04-15T13:50:47.294Z,76849.47
2023-04-15T13:52:20.487Z,76849.47
2023-04-15T13:53:53.489Z,76859.34
2023-04-15T13:55:27.592Z,76865.28
2023-04-15T13:57:02.625Z,76865.28
2023-04-15T13:58:38.329Z,76861.34
2023-04-15T14:00:12.348Z,76855.41
2023-04-15T14:01:45.648Z,76861.34
2023-04-15T14:03:18.873Z,76859.34
2023-04-15T14:04:54.691Z,76877.16
2023-04-15T14:06:32.665Z,76904.84
2023-04-15T14:08:06.868Z,76894.94
2023-04-15T14:09:43.618Z,76918.69
2023-04-15T14:11:17.245Z,76918.69
2023-04-15T14:12:50.424Z,76916.69
2023-04-15T14:14:26.623Z,76940.44
2023-04-15T14:16:00.117Z,76940.44
2023-04-15T14:17:34.406Z,76944.38
2023-04-15T14:19:08.009Z,76948.34
2023-04-15T14:20:41.346Z,76936.47
2023-04-15T14:22:14.522Z,76946.38
2023-04-15T14:23:47.593Z,76964.16
2023-04-15T14:25:32.813Z,76978.00
2023-04-15T14:27:09.106Z,76981.97
2023-04-15T14:28:45.387Z,76987.88
2023-04-15T14:30:18.547Z,77039.31
2023-04-15T14:32:07.646Z,76999.75
2023-04-15T14:33:45.108Z,77011.63
2023-04-15T14:35:18.760Z,77017.56
2023-04-15T14:36:55.721Z,77025.47
2023-04-15T14:38:28.873Z,77027.44
2023-04-15T14:40:02.106Z,77027.44
2023-04-15T14:41:36.319Z,77037.34
2023-04-15T14:43:09.592Z,77043.25
2023-04-15T14:44:44.500Z,77059.09
2023-04-15T14:46:21.068Z,77067.00
2023-04-15T14:47:55.103Z,77055.13
2023-04-15T14:49:29.168Z,77074.91
2023-04-15T14:51:02.519Z,77078.88
2023-04-15T14:52:39.154Z,77112.47
2023-04-15T14:54:12.392Z,77096.66
2023-04-15T14:55:46.596Z,77104.56
2023-04-15T14:57:22.663Z,77159.94
2023-04-15T14:58:55.726Z,77122.38
2023-04-15T15:00:28.645Z,77134.25
2023-04-15T15:02:01.739Z,77142.16
2023-04-15T15:03:34.902Z,77154.00
2023-04-15T15:05:10.454Z,77161.94
2023-04-15T15:06:43.645Z,77171.81
2023-04-15T15:08:16.819Z,77175.78
2023-04-15T15:09:49.781Z,77187.63
2023-04-15T15:11:22.760Z,77193.56
2023-04-15T15:12:55.770Z,77199.50
2023-04-15T15:14:29.198Z,77209.38
2023-04-15T15:16:02.862Z,77225.22
2023-04-15T15:17:36.439Z,77223.22
2023-04-15T15:19:10.091Z,77233.13
2023-04-15T15:20:43.682Z,77245.00
2023-04-15T15:22:16.568Z,77252.91
2023-04-15T15:23:49.574Z,77252.91
2023-04-15T15:25:22.566Z,77264.75
2023-04-15T15:26:56.056Z,77276.63
2023-04-15T15:28:28.882Z,77282.56
2023-04-15T15:30:02.088Z,77296.41
2023-04-15T15:31:36.627Z,77298.38
2023-04-15T15:33:09.931Z,77304.31
2023-04-15T15:34:42.787Z,77314.22
2023-04-15T15:36:16.573Z,77316.19
2023-04-15T15:37:50.082Z,77391.34
2023-04-15T15:39:24.376Z,77407.16
2023-04-15T15:41:00.312Z,77343.88
2023-04-15T15:42:33.568Z,77381.44
2023-04-15T15:44:07.398Z,77355.75
2023-04-15T15:45:41.062Z,77357.72
2023-04-15T15:47:13.988Z,77371.56
2023-04-15T15:48:47.231Z,77369.59
2023-04-15T15:50:21.474Z,77373.53
2023-04-15T15:51:54.472Z,77383.44
2023-04-15T15:53:27.589Z,77387.38
2023-04-15T15:55:02.315Z,77393.31
2023-04-15T15:56:35.515Z,77399.25
2023-04-15T15:58:08.772Z,77470.47
2023-04-15T15:59:43.920Z,77411.13
2023-04-15T16:01:17.504Z,77419.03
2023-04-15T16:03:06.193Z,77423.00
2023-04-15T16:04:41.103Z,77426.94
2023-04-15T16:06:13.951Z,77423.00
2023-04-15T16:07:46.802Z,77426.94
2023-04-15T16:09:20.131Z,77450.69
2023-04-15T16:10:53.399Z,77442.75
2023-04-15T16:12:26.254Z,77446.72
2023-04-15T16:13:59.027Z,77442.75
2023-04-15T16:15:32.098Z,77452.66
2023-04-15T16:17:05.116Z,77470.47
2023-04-15T16:18:38.922Z,77474.41
2023-04-15T16:20:11.965Z,77476.38
2023-04-15T16:21:45.095Z,77476.38
2023-04-15T16:23:18.162Z,77486.28
2023-04-15T16:24:51.248Z,77490.22
2023-04-15T16:26:24.379Z,77490.22
2023-04-15T16:28:01.309Z,77500.13
2023-04-15T16:29:39.047Z,77506.06
2023-04-15T16:31:12.599Z,77513.97
2023-04-15T16:32:45.781Z,77525.84
2023-04-15T16:34:20.197Z,77529.78
2023-04-15T16:35:53.410Z,77581.22
2023-04-15T16:37:26.455Z,77547.59
2023-04-15T16:38:59.463Z,77541.66
2023-04-15T16:40:33.412Z,77561.44
2023-04-15T16:42:07.637Z,77569.34
2023-04-15T16:43:40.820Z,77565.38
2023-04-15T16:45:13.765Z,77569.34
2023-04-15T16:46:47.021Z,77573.31
2023-04-15T16:48:20.577Z,77573.31
2023-04-15T16:49:53.457Z,77577.25
2023-04-15T16:51:26.862Z,77573.31
2023-04-15T16:53:00.016Z,77587.16
2023-04-15T16:54:35.398Z,77595.06
2023-04-15T16:56:11.635Z,77620.78
2023-04-15T16:58:01.900Z,77648.47
2023-04-15T16:59:36.219Z,77640.56
2023-04-15T17:01:10.576Z,77610.88
2023-04-15T17:02:44.030Z,77626.72
2023-04-15T17:04:17.422Z,77628.69
2023-04-15T17:05:50.856Z,77662.31
2023-04-15T17:07:23.734Z,77626.72
2023-04-15T17:08:57.247Z,77624.72
2023-04-15T17:10:31.733Z,77616.81
2023-04-15T17:12:05.285Z,77630.66
2023-04-15T17:13:39.104Z,77628.69
2023-04-15T17:15:12.224Z,77626.72
2023-04-15T17:16:50.795Z,77632.63
2023-04-15T17:18:23.943Z,77624.72
2023-04-15T17:20:14.651Z,77626.72
2023-04-15T17:21:48.401Z,77632.63
2023-04-15T17:23:28.276Z,77638.56
2023-04-15T17:25:01.334Z,77638.56
2023-04-15T17:26:38.815Z,77632.63
2023-04-15T17:28:11.851Z,77634.63
2023-04-15T17:29:48.972Z,77636.59
2023-04-15T17:31:41.981Z,77652.41
2023-04-15T17:33:59.955Z,77648.47
2023-04-15T17:35:48.048Z,77652.41
2023-04-15T17:37:40.661Z,77662.31
2023-04-15T17:39:33.494Z,77660.34
2023-04-15T17:41:26.814Z,77668.25
2023-04-15T17:43:19.515Z,77670.22
2023-04-15T17:45:12.290Z,77670.22
2023-04-15T17:47:05.193Z,77684.06
2023-04-15T17:48:58.526Z,77688.03
2023-04-15T17:50:52.047Z,77678.13
2023-04-15T17:52:45.171Z,77680.09
2023-04-15T17:54:37.818Z,77680.09
2023-04-15T17:56:30.748Z,77688.03
2023-04-15T17:58:24.205Z,77691.97
2023-04-15T18:00:17.506Z,77693.97
2023-04-15T18:02:11.247Z,77693.97
2023-04-15T18:04:04.750Z,77735.50
2023-04-15T18:05:57.842Z,77690.00
2023-04-15T18:07:53.378Z,77690.00
2023-04-15T18:09:46.622Z,77701.88
2023-04-15T18:11:44.147Z,77705.81
2023-04-15T18:13:36.950Z,77711.75
2023-04-15T18:15:31.730Z,77713.72
2023-04-15T18:17:24.698Z,77731.53
2023-04-15T18:19:18.214Z,77731.53
2023-04-15T18:20:51.292Z,77739.44
2023-04-15T18:22:24.237Z,77743.41
2023-04-15T18:23:57.230Z,77747.34
2023-04-15T18:25:32.281Z,77739.44
2023-04-15T18:27:05.646Z,77747.34
2023-04-15T18:28:41.714Z,77747.34
2023-04-15T18:30:14.879Z,77735.50
2023-04-15T18:31:47.958Z,77739.44
2023-04-15T18:33:21.566Z,77747.34
2023-04-15T18:34:56.122Z,77757.25
2023-04-15T18:36:29.935Z,77765.16
2023-04-15T18:38:03.064Z,77763.19
2023-04-15T18:39:37.315Z,77765.16
2023-04-15T18:41:10.204Z,77767.13
2023-04-15T18:42:43.047Z,77767.13
2023-04-15T18:44:16.456Z,77779.00
2023-04-15T18:45:49.723Z,77788.91
2023-04-15T18:47:23.473Z,77786.91
2023-04-15T18:48:57.776Z,77784.94